Central Brevoort - southern half: Past 24 Hour Conditions

 

Rankin Inlet Airport

07:00 PM CDT 24 October 2014
This table is a summary of hourly weather conditions for the past 24 hours.
Date / Time
(CDT)
Wind(knots) Conditions Visibility(km) Pressure(kPa) Air tempC) Relative humidity(%) Dew pointC) Wind Chill
24 October 2014
19:00 E 24 gust 35 Mostly Cloudy 19 100.9 -1 74 -5 -9
18:00 E 25 gust 34 Mostly Cloudy 19 100.9 -1 75 -5 -9
17:00 E 24 gust 32 Mostly Cloudy 19 101.0 -1 76 -4 -9
16:00 E 25 gust 34 Mostly Cloudy 19 101.0 -1 75 -5 -9
15:00 E 22 gust 32 Mostly Cloudy 19 101.1 -1 76 -5 -9
14:00 ESE 23 gust 35 Mostly Cloudy 19 101.2 -1 76 -4 -9
13:00 ESE 29 gust 35 Mostly Cloudy 19 101.3 -1 73 -5 -10
12:00 E 24 gust 37 Mostly Cloudy 19 101.3 -1 75 -5 -9
11:00 ESE 26 gust 36 Cloudy 24 101.4 -1 76 -5 -9
10:00 ESE 25 gust 37 Cloudy 24 101.5 -1 76 -5 -10
9:00 ESE 22 gust 31 Cloudy 24 101.6 -1 75 -5 -9
8:00 ESE 25 gust 33 Cloudy 24 101.6 -2 75 -5 -10
7:00 ESE 25 gust 33 Cloudy 24 101.7 -2 74 -6 -10
6:00 ESE 25 gust 33 Cloudy 24 101.8 -2 74 -6 -11
5:00 ESE 22 gust 31 Cloudy 24 101.8 -2 75 -6 -10
4:00 ESE 25 gust 32 Cloudy 24 101.9 -2 73 -6 -11
3:00 ESE 21 gust 30 Cloudy 24 102.0 -2 74 -6 -10
2:00 ESE 22 gust 27 Cloudy 24 102.0 -2 72 -6 -10
1:00 ESE 24 Cloudy 24 102.1 -2 74 -6 -10
0:00 ESE 20 gust 27 Cloudy 24 102.1 -2 76 -6 -9
23 October 2014
23:00 ESE 24 gust 30 Cloudy 24 102.2 -2 71 -7 -11
22:00 ESE 19 gust 27 Cloudy 24 102.2 -2 75 -6 -10
21:00 ESE 16 gust 24 Cloudy 24 102.3 -2 73 -6 -9
20:00 E 15 gust 22 Cloudy 24 102.3 -2 74 -6 -9
19:00 E 16 gust 21 Light Snow 24 102.4 -2 76 -6 -9
 
Map of Arctic - Eastern Arctic marine weather areas Baker Lake Airport Chesterfield Inlet Airport Coral Harbour Airport Gjoa Haven Airport Kugaaruk Airport Rankin Inlet Airport Shepherd Bay Airport Whale Cove Airport Arctic Bay Brevoort Island Qikiqtarjuaq Airport Cape Dorset Airport Cape Dyer Cape Hooper Clyde Airport Grise Fiord Airport Hall Beach Airport Igloolik Airport Iqaluit Airport Longstaff Bluff Pangnirtung Airport Pond Inlet Airport Repulse Bay Airport Resolute Airport Resolution Island Rowley Island Airport Taloyoak Airport Wager Bay Akulivik Airport Ivujivik Airport Puvirnituq Airport Kangiqsujuaq Airport Kangirsuk Airport Quaqtaq Airport Tasiujaq Airport Cape Kakkiviak Cape Kiglapait Nain Airport Saglek Cape Mercy Kimmirut Airport Aupaluk Airport Salluit Airport Kangiqsualujjuaq Airport Fort Ross
Legend: buoyBuoy land stationLand Station